createdAt,value
2022-09-13T00:00:30.952Z,130.47
2022-09-13T00:01:26.858Z,129.76
2022-09-13T00:02:22.032Z,130.47
2022-09-13T00:03:17.167Z,130.37
2022-09-13T00:04:12.939Z,130.27
2022-09-13T00:05:08.128Z,131.50
2022-09-13T00:06:03.380Z,131.50
2022-09-13T00:06:58.619Z,132.23
2022-09-13T00:07:53.790Z,131.50
2022-09-13T00:08:48.868Z,130.47
2022-09-13T00:09:43.897Z,130.68
2022-09-13T00:10:38.936Z,131.09
2022-09-13T00:11:33.966Z,129.46
2022-09-13T00:12:28.975Z,130.99
2022-09-13T00:13:23.984Z,129.46
2022-09-13T00:14:19.048Z,130.07
2022-09-13T00:15:14.044Z,129.96
2022-09-13T00:16:09.104Z,129.46
2022-09-13T00:17:04.134Z,130.27
2022-09-13T00:17:59.165Z,128.76
2022-09-13T00:18:54.196Z,127.29
2022-09-13T00:19:49.213Z,127.09
2022-09-13T00:20:44.205Z,126.71
2022-09-13T00:21:39.235Z,125.66
2022-09-13T00:22:34.233Z,125.47
2022-09-13T00:23:29.273Z,127.19
2022-09-13T00:24:24.303Z,127.97
2022-09-13T00:25:19.322Z,128.96
2022-09-13T00:26:14.461Z,129.56
2022-09-13T00:27:09.529Z,128.37
2022-09-13T00:28:04.512Z,128.37
2022-09-13T00:29:01.183Z,126.42
2022-09-13T00:29:56.489Z,127.39
2022-09-13T00:30:52.469Z,126.81
2022-09-13T00:31:47.684Z,125.00
2022-09-13T00:32:42.809Z,125.47
2022-09-13T00:33:38.665Z,126.61
2022-09-13T00:34:33.945Z,126.32
2022-09-13T00:35:29.920Z,126.42
2022-09-13T00:36:25.076Z,126.23
2022-09-13T00:37:20.366Z,124.25
2022-09-13T00:38:16.236Z,123.98
2022-09-13T00:39:11.593Z,124.25
2022-09-13T00:40:06.895Z,123.79
2022-09-13T00:41:03.185Z,122.52
2022-09-13T00:41:58.331Z,123.34
2022-09-13T00:42:54.186Z,124.16
2022-09-13T00:43:49.612Z,124.53
2022-09-13T00:44:44.935Z,125.85
2022-09-13T00:45:40.724Z,127.39
2022-09-13T00:46:35.934Z,129.36
2022-09-13T00:47:31.642Z,127.58
2022-09-13T00:48:26.924Z,126.81
2022-09-13T00:49:22.355Z,125.85
2022-09-13T00:50:18.093Z,125.47
2022-09-13T00:51:13.685Z,125.66
2022-09-13T00:52:08.567Z,125.00
2022-09-13T00:53:05.216Z,123.70
2022-09-13T00:54:00.532Z,124.35
2022-09-13T00:54:56.388Z,124.91
2022-09-13T00:55:51.660Z,124.81
2022-09-13T00:56:46.865Z,125.19
2022-09-13T00:57:42.699Z,125.66
2022-09-13T00:58:37.999Z,124.72
2022-09-13T00:59:33.832Z,124.25
2022-09-13T01:00:29.098Z,125.19
2022-09-13T01:01:24.367Z,126.90
2022-09-13T01:02:20.117Z,126.81
2022-09-13T01:03:15.288Z,128.17
2022-09-13T01:04:12.719Z,130.17
2022-09-13T01:05:06.839Z,132.02
2022-09-13T01:06:01.986Z,132.55
2022-09-13T01:06:57.826Z,134.04
2022-09-13T01:07:52.975Z,135.12
2022-09-13T01:08:48.131Z,136.56
2022-09-13T01:09:44.019Z,137.01
2022-09-13T01:10:39.307Z,136.90
2022-09-13T01:11:35.292Z,135.23
2022-09-13T01:12:30.327Z,136.00
2022-09-13T01:13:25.744Z,136.67
2022-09-13T01:14:21.634Z,137.23
2022-09-13T01:15:16.784Z,137.57
2022-09-13T01:16:12.234Z,137.57
2022-09-13T01:17:08.232Z,136.90
2022-09-13T01:18:03.526Z,137.23
2022-09-13T01:18:59.381Z,135.34
2022-09-13T01:19:54.676Z,133.18
2022-09-13T01:20:49.961Z,132.13
2022-09-13T01:21:45.706Z,131.81
2022-09-13T01:22:40.996Z,130.68
2022-09-13T01:23:36.919Z,130.07
2022-09-13T01:24:32.040Z,130.68
2022-09-13T01:25:27.340Z,132.44
2022-09-13T01:26:23.062Z,132.44
2022-09-13T01:27:18.347Z,132.55
2022-09-13T01:28:13.509Z,132.65
2022-09-13T01:29:10.018Z,130.57
2022-09-13T01:30:05.147Z,129.06
2022-09-13T01:31:04.600Z,127.00
2022-09-13T01:31:59.794Z,126.23
2022-09-13T01:32:55.112Z,126.81
2022-09-13T01:33:50.982Z,127.39
2022-09-13T01:34:46.297Z,128.46
2022-09-13T01:35:41.567Z,129.36
2022-09-13T01:36:37.964Z,129.26
2022-09-13T01:37:33.255Z,129.26
2022-09-13T01:38:29.128Z,129.16
2022-09-13T01:39:24.274Z,128.76
2022-09-13T01:40:19.723Z,128.17
2022-09-13T01:41:15.337Z,127.09
2022-09-13T01:42:10.636Z,126.71
2022-09-13T01:43:06.483Z,127.19
2022-09-13T01:44:01.747Z,127.00
2022-09-13T01:44:57.195Z,127.58
2022-09-13T01:45:52.840Z,128.27
2022-09-13T01:46:47.958Z,130.57
2022-09-13T01:47:43.122Z,131.92
2022-09-13T01:48:38.373Z,133.82
2022-09-13T01:49:33.724Z,135.67
2022-09-13T01:50:28.693Z,137.80
2022-09-13T01:51:24.071Z,137.80
2022-09-13T01:52:19.863Z,137.46
2022-09-13T01:53:15.148Z,135.12
2022-09-13T01:54:10.435Z,133.07
2022-09-13T01:55:06.329Z,131.60
2022-09-13T01:56:01.470Z,132.13
2022-09-13T01:56:56.759Z,133.07
2022-09-13T01:57:51.908Z,133.71
2022-09-13T01:58:47.067Z,131.60
2022-09-13T01:59:42.167Z,132.02
2022-09-13T02:00:37.097Z,129.96
2022-09-13T02:01:32.154Z,128.86
2022-09-13T02:02:27.157Z,125.66
2022-09-13T02:03:22.165Z,125.19
2022-09-13T02:04:17.205Z,124.35
2022-09-13T02:05:12.269Z,122.79
2022-09-13T02:06:07.286Z,121.81
2022-09-13T02:07:02.284Z,121.72
2022-09-13T02:07:57.338Z,121.54
2022-09-13T02:08:52.467Z,121.63
2022-09-13T02:09:47.543Z,119.37
2022-09-13T02:10:45.805Z,118.69
2022-09-13T02:11:40.793Z,116.86
2022-09-13T02:12:35.786Z,116.37
2022-09-13T02:13:30.808Z,115.89
2022-09-13T02:14:25.811Z,115.56
2022-09-13T02:15:20.851Z,115.40
2022-09-13T02:16:15.893Z,115.89
2022-09-13T02:17:10.890Z,116.45
2022-09-13T02:18:05.923Z,116.45
2022-09-13T02:19:01.062Z,115.97
2022-09-13T02:19:56.080Z,117.43
2022-09-13T02:20:51.122Z,117.52
2022-09-13T02:21:46.112Z,117.35
2022-09-13T02:22:41.123Z,117.52
2022-09-13T02:23:36.253Z,118.69
2022-09-13T02:24:31.544Z,120.40
2022-09-13T02:25:26.678Z,121.28
2022-09-13T02:26:21.721Z,123.25
2022-09-13T02:27:19.847Z,123.98
2022-09-13T02:28:14.851Z,124.35
2022-09-13T02:29:09.978Z,125.09
2022-09-13T02:30:05.007Z,126.04
2022-09-13T02:31:00.171Z,126.61
2022-09-13T02:31:55.360Z,126.81
2022-09-13T02:32:50.389Z,127.29
2022-09-13T02:33:45.489Z,128.56
2022-09-13T02:34:40.437Z,127.97
2022-09-13T02:35:35.475Z,126.42
2022-09-13T02:36:33.194Z,126.23
2022-09-13T02:37:28.364Z,127.39
2022-09-13T02:38:23.518Z,127.00
2022-09-13T02:39:18.604Z,128.56
2022-09-13T02:40:13.688Z,127.78
2022-09-13T02:41:08.764Z,127.58
2022-09-13T02:42:03.805Z,129.56
2022-09-13T02:42:58.848Z,130.17
2022-09-13T02:43:54.019Z,129.26
2022-09-13T02:44:49.036Z,129.36
2022-09-13T02:45:44.163Z,129.56
2022-09-13T02:46:39.171Z,128.76
2022-09-13T02:47:34.221Z,128.07
2022-09-13T02:48:29.247Z,127.29
2022-09-13T02:49:24.414Z,126.23
2022-09-13T02:50:20.270Z,125.75
2022-09-13T02:51:15.572Z,127.39
2022-09-13T02:52:11.568Z,127.58
2022-09-13T02:53:06.589Z,127.39
2022-09-13T02:54:02.043Z,127.00
2022-09-13T02:54:57.789Z,127.58
2022-09-13T02:55:53.085Z,127.39
2022-09-13T02:56:48.488Z,127.48
2022-09-13T02:57:44.618Z,128.27
2022-09-13T02:58:39.907Z,128.46
2022-09-13T02:59:35.786Z,128.66
2022-09-13T03:00:30.917Z,127.29
2022-09-13T03:01:26.398Z,127.39
2022-09-13T03:02:22.015Z,126.71
2022-09-13T03:03:17.202Z,126.32
2022-09-13T03:04:13.086Z,126.71
2022-09-13T03:05:08.219Z,126.61
2022-09-13T03:06:03.635Z,127.00
2022-09-13T03:06:59.364Z,126.42
2022-09-13T03:07:54.663Z,126.61
2022-09-13T03:08:49.827Z,125.85
2022-09-13T03:09:46.353Z,122.88
2022-09-13T03:10:41.542Z,123.43
2022-09-13T03:11:37.386Z,121.10
2022-09-13T03:12:32.660Z,120.92
2022-09-13T03:13:27.832Z,121.36
2022-09-13T03:14:23.703Z,121.01
2022-09-13T03:15:18.889Z,121.63
2022-09-13T03:16:14.751Z,122.61
2022-09-13T03:17:09.892Z,122.25
2022-09-13T03:18:05.211Z,122.34
2022-09-13T03:19:01.088Z,122.16
2022-09-13T03:19:56.270Z,122.88
2022-09-13T03:20:51.534Z,123.98
2022-09-13T03:21:47.941Z,124.35
2022-09-13T03:22:43.229Z,127.39
2022-09-13T03:23:39.110Z,126.13
2022-09-13T03:24:34.276Z,125.47
2022-09-13T03:25:29.439Z,124.16
2022-09-13T03:26:25.176Z,123.06
2022-09-13T03:27:20.481Z,123.34
2022-09-13T03:28:16.462Z,123.89
2022-09-13T03:29:11.662Z,122.25
2022-09-13T03:30:06.959Z,122.16
2022-09-13T03:31:02.749Z,121.19
2022-09-13T03:31:57.988Z,120.14
2022-09-13T03:32:53.277Z,121.28
2022-09-13T03:33:49.425Z,120.14
2022-09-13T03:34:44.603Z,118.02
2022-09-13T03:35:40.477Z,116.13
2022-09-13T03:36:35.734Z,113.60
2022-09-13T03:37:31.138Z,111.47
2022-09-13T03:38:26.207Z,110.95
2022-09-13T03:39:21.753Z,110.81
2022-09-13T03:40:17.800Z,110.08
2022-09-13T03:41:12.949Z,111.25
2022-09-13T03:42:08.798Z,110.73
2022-09-13T03:43:04.042Z,109.71
2022-09-13T03:43:59.354Z,110.44
2022-09-13T03:44:54.961Z,111.32
2022-09-13T03:45:50.315Z,111.40
2022-09-13T03:46:46.040Z,112.00
2022-09-13T03:47:41.326Z,112.30
2022-09-13T03:48:36.837Z,112.45
2022-09-13T03:49:32.579Z,113.83
2022-09-13T03:50:27.869Z,114.06
2022-09-13T03:51:23.039Z,115.09
2022-09-13T03:52:19.548Z,113.75
2022-09-13T03:53:14.751Z,114.30
2022-09-13T03:54:10.036Z,115.56
2022-09-13T03:55:05.181Z,117.19
2022-09-13T03:56:02.787Z,117.27
2022-09-13T03:56:58.069Z,118.94
2022-09-13T03:57:53.067Z,118.69
2022-09-13T03:58:48.234Z,119.97
2022-09-13T03:59:43.161Z,120.75
2022-09-13T04:00:38.227Z,120.92
2022-09-13T04:01:33.309Z,118.94
2022-09-13T04:02:28.349Z,117.19
2022-09-13T04:03:23.384Z,116.29
2022-09-13T04:04:18.404Z,114.22
2022-09-13T04:05:13.554Z,113.06
2022-09-13T04:06:08.466Z,113.06
2022-09-13T04:07:03.475Z,112.22
2022-09-13T04:07:58.512Z,110.51
2022-09-13T04:08:53.530Z,109.21
2022-09-13T04:09:48.554Z,108.78
2022-09-13T04:10:43.723Z,109.43
2022-09-13T04:11:38.763Z,108.57
2022-09-13T04:12:33.801Z,108.57
2022-09-13T04:13:28.825Z,108.86
2022-09-13T04:14:23.960Z,109.79
2022-09-13T04:15:19.034Z,110.51
2022-09-13T04:16:14.095Z,110.44
2022-09-13T04:17:09.102Z,110.08
2022-09-13T04:18:04.150Z,109.21
2022-09-13T04:18:59.469Z,109.71
2022-09-13T04:19:54.209Z,109.36
2022-09-13T04:20:49.217Z,110.15
2022-09-13T04:21:44.308Z,112.07
2022-09-13T04:22:39.368Z,112.98
2022-09-13T04:23:34.369Z,113.21
2022-09-13T04:24:29.371Z,113.37
2022-09-13T04:25:26.835Z,114.06
2022-09-13T04:26:22.104Z,113.99
2022-09-13T04:27:17.381Z,113.75
2022-09-13T04:28:12.544Z,114.30
2022-09-13T04:29:07.992Z,114.06
2022-09-13T04:30:03.395Z,113.44
2022-09-13T04:30:58.555Z,113.68
2022-09-13T04:31:53.893Z,114.30
2022-09-13T04:32:48.983Z,115.01
2022-09-13T04:33:44.963Z,114.69
2022-09-13T04:34:40.395Z,116.37
2022-09-13T04:35:36.161Z,117.02
2022-09-13T04:36:31.484Z,116.94
2022-09-13T04:37:26.853Z,116.70
2022-09-13T04:38:22.505Z,115.81
2022-09-13T04:39:17.851Z,114.77
2022-09-13T04:40:13.216Z,114.46
2022-09-13T04:41:09.426Z,112.37
2022-09-13T04:42:04.729Z,112.45
2022-09-13T04:43:00.484Z,111.32
2022-09-13T04:43:55.691Z,111.40
2022-09-13T04:44:50.927Z,110.95
2022-09-13T04:45:46.774Z,110.95
2022-09-13T04:46:42.005Z,110.29
2022-09-13T04:47:37.782Z,110.22
2022-09-13T04:48:32.973Z,109.57
2022-09-13T04:49:28.359Z,109.86
2022-09-13T04:50:24.168Z,110.81
2022-09-13T04:51:19.507Z,111.18
2022-09-13T04:52:14.765Z,111.40
2022-09-13T04:53:11.281Z,112.75
2022-09-13T04:54:06.557Z,112.75
2022-09-13T04:55:02.405Z,111.55
2022-09-13T04:55:57.733Z,110.66
2022-09-13T04:56:53.056Z,111.10
2022-09-13T04:57:48.826Z,111.85
2022-09-13T04:58:44.134Z,113.37
2022-09-13T04:59:40.004Z,114.61
2022-09-13T05:00:35.235Z,114.61
2022-09-13T05:01:30.614Z,114.85
2022-09-13T05:02:26.348Z,116.45
2022-09-13T05:03:21.694Z,117.35
2022-09-13T05:04:17.145Z,117.19
2022-09-13T05:05:13.323Z,114.77
2022-09-13T05:06:08.682Z,113.68
2022-09-13T05:07:04.462Z,114.46
2022-09-13T05:07:59.756Z,115.01
2022-09-13T05:08:55.394Z,113.99
2022-09-13T05:09:51.022Z,113.37
2022-09-13T05:10:46.360Z,112.83
2022-09-13T05:11:42.124Z,112.91
2022-09-13T05:12:37.443Z,112.15
2022-09-13T05:13:32.900Z,111.77
2022-09-13T05:14:28.531Z,110.95
2022-09-13T05:15:23.846Z,109.64
2022-09-13T05:16:19.242Z,110.29
2022-09-13T05:17:15.536Z,109.43
2022-09-13T05:18:10.907Z,109.28
2022-09-13T05:19:06.648Z,108.08
2022-09-13T05:20:01.957Z,108.15
2022-09-13T05:20:57.291Z,106.63
2022-09-13T05:21:53.048Z,104.62
2022-09-13T05:22:48.398Z,104.56
2022-09-13T05:23:44.153Z,104.69
2022-09-13T05:24:39.486Z,105.48
2022-09-13T05:25:34.847Z,106.36
2022-09-13T05:26:30.632Z,105.82
2022-09-13T05:27:26.014Z,106.36
2022-09-13T05:28:21.375Z,107.11
2022-09-13T05:29:17.762Z,107.38
2022-09-13T05:30:13.150Z,107.25
2022-09-13T05:31:08.970Z,105.22
2022-09-13T05:32:04.344Z,101.63
2022-09-13T05:32:59.715Z,98.51
2022-09-13T05:33:55.084Z,94.87
2022-09-13T05:34:50.118Z,93.61
2022-09-13T05:35:45.161Z,91.66
2022-09-13T05:36:40.255Z,90.46
2022-09-13T05:37:35.290Z,87.89
2022-09-13T05:38:30.399Z,86.17
2022-09-13T05:39:34.113Z,84.42
2022-09-13T05:40:21.642Z,80.98
2022-09-13T05:41:15.630Z,78.18
2022-09-13T05:42:10.735Z,76.67
2022-09-13T05:43:05.818Z,74.28
2022-09-13T05:44:10.341Z,73.82
2022-09-13T05:45:00.465Z,74.21
2022-09-13T05:45:54.522Z,69.28
2022-09-13T05:46:49.544Z,67.93
2022-09-13T05:47:44.677Z,70.21
2022-09-13T05:48:39.929Z,71.91
2022-09-13T05:49:39.033Z,72.22
2022-09-13T05:50:56.746Z,72.66
2022-09-13T05:51:26.317Z,72.91
2022-09-13T05:52:20.233Z,73.75
2022-09-13T05:53:15.620Z,74.01
2022-09-13T05:54:11.015Z,73.88
2022-09-13T05:55:06.404Z,74.08
2022-09-13T05:56:02.216Z,73.88
2022-09-13T05:56:57.691Z,73.88
2022-09-13T05:57:53.042Z,72.47
2022-09-13T05:58:48.524Z,73.30
2022-09-13T05:59:43.512Z,73.04
2022-09-13T06:00:38.644Z,72.66
2022-09-13T06:01:33.750Z,73.56
2022-09-13T06:02:33.076Z,73.43
2022-09-13T06:03:28.473Z,73.17
2022-09-13T06:04:23.863Z,72.85
2022-09-13T06:05:19.639Z,74.08
2022-09-13T06:06:15.067Z,74.41
2022-09-13T06:07:10.440Z,74.15
2022-09-13T06:08:07.060Z,72.10
2022-09-13T06:09:02.427Z,70.57
2022-09-13T06:09:58.209Z,68.94
2022-09-13T06:10:53.570Z,68.88
2022-09-13T06:11:48.948Z,68.04
2022-09-13T06:12:44.748Z,67.06
2022-09-13T06:13:40.128Z,65.84
2022-09-13T06:14:36.037Z,65.37
2022-09-13T06:15:31.333Z,65.17
2022-09-13T06:16:26.746Z,64.46
2022-09-13T06:17:22.526Z,62.02
2022-09-13T06:18:17.920Z,60.32
2022-09-13T06:19:13.389Z,59.37
2022-09-13T06:20:09.624Z,57.85
2022-09-13T06:21:05.025Z,56.21
2022-09-13T06:22:00.715Z,55.87
2022-09-13T06:22:56.055Z,55.28
2022-09-13T06:23:51.583Z,54.45
2022-09-13T06:24:47.257Z,53.37
2022-09-13T06:25:42.630Z,53.07
2022-09-13T06:26:38.484Z,52.40
2022-09-13T06:27:33.877Z,52.50
2022-09-13T06:28:29.393Z,53.03
2022-09-13T06:29:25.083Z,53.92
2022-09-13T06:30:20.426Z,54.56
2022-09-13T06:31:15.904Z,55.65
2022-09-13T06:32:12.121Z,56.90
2022-09-13T06:33:07.540Z,58.01
2022-09-13T06:34:03.223Z,59.12
2022-09-13T06:34:58.580Z,59.46
2022-09-13T06:35:53.984Z,60.10
2022-09-13T06:36:49.792Z,59.71
2022-09-13T06:37:45.170Z,59.29
2022-09-13T06:38:40.959Z,57.89
2022-09-13T06:39:36.291Z,57.69
2022-09-13T06:40:31.751Z,58.66
2022-09-13T06:41:27.470Z,58.79
2022-09-13T06:42:22.823Z,58.05
2022-09-13T06:43:18.202Z,57.37
2022-09-13T06:44:14.626Z,57.33
2022-09-13T06:45:09.987Z,56.98
2022-09-13T06:46:05.809Z,57.29
2022-09-13T06:47:01.205Z,57.10
2022-09-13T06:47:56.738Z,57.57
2022-09-13T06:48:52.508Z,57.37
2022-09-13T06:49:47.905Z,57.14
2022-09-13T06:50:43.289Z,57.14
2022-09-13T06:51:39.114Z,56.63
2022-09-13T06:52:34.533Z,57.06
2022-09-13T06:53:30.333Z,57.81
2022-09-13T06:54:25.671Z,58.17
2022-09-13T06:55:21.098Z,58.99
2022-09-13T06:56:16.822Z,60.23
2022-09-13T06:57:12.196Z,60.23
2022-09-13T06:58:07.684Z,60.98
2022-09-13T06:59:03.904Z,61.74
2022-09-13T06:59:59.252Z,62.58
2022-09-13T07:00:56.288Z,63.53
2022-09-13T07:01:50.536Z,63.68
2022-09-13T07:02:46.041Z,64.07
2022-09-13T07:03:41.296Z,65.63
2022-09-13T07:04:36.693Z,67.06
2022-09-13T07:05:31.710Z,67.98
2022-09-13T07:06:26.844Z,69.57
2022-09-13T07:07:21.920Z,69.63
2022-09-13T07:08:17.045Z,70.27
2022-09-13T07:09:12.141Z,70.39
2022-09-13T07:10:07.150Z,72.41
2022-09-13T07:11:02.268Z,72.35
2022-09-13T07:11:57.284Z,71.05
2022-09-13T07:12:54.387Z,70.16
2022-09-13T07:13:49.478Z,69.11
2022-09-13T07:14:44.459Z,68.37
2022-09-13T07:15:39.611Z,68.65
2022-09-13T07:16:34.627Z,68.54
2022-09-13T07:17:31.472Z,68.82
2022-09-13T07:18:24.655Z,67.22
2022-09-13T07:19:19.677Z,65.17
2022-09-13T07:20:14.699Z,63.78
2022-09-13T07:21:09.805Z,62.39
2022-09-13T07:22:04.805Z,61.16
2022-09-13T07:22:59.808Z,57.85
2022-09-13T07:23:54.948Z,57.93
2022-09-13T07:24:49.965Z,58.58
2022-09-13T07:25:45.632Z,59.71
2022-09-13T07:26:41.204Z,59.71
2022-09-13T07:27:36.504Z,59.76
2022-09-13T07:28:35.196Z,60.49
2022-09-13T07:29:27.861Z,62.21
2022-09-13T07:30:23.217Z,62.49
2022-09-13T07:31:19.121Z,63.34
2022-09-13T07:32:14.466Z,64.66
2022-09-13T07:33:10.168Z,64.12
2022-09-13T07:34:05.601Z,62.96
2022-09-13T07:35:01.104Z,62.77
2022-09-13T07:35:56.855Z,62.58
2022-09-13T07:36:52.334Z,62.49
2022-09-13T07:37:47.812Z,62.53
2022-09-13T07:38:44.453Z,60.62
2022-09-13T07:39:39.855Z,61.16
2022-09-13T07:40:35.591Z,62.25
2022-09-13T07:41:31.057Z,63.24
2022-09-13T07:42:26.556Z,63.24
2022-09-13T07:43:22.439Z,62.72
2022-09-13T07:44:18.071Z,62.49
2022-09-13T07:45:13.697Z,63.05
2022-09-13T07:46:09.271Z,63.53
2022-09-13T07:47:04.604Z,64.07
2022-09-13T07:48:00.625Z,66.84
2022-09-13T07:48:56.101Z,69.28
2022-09-13T07:49:51.547Z,72.72
2022-09-13T07:50:47.858Z,76.88
2022-09-13T07:51:43.319Z,81.06
2022-09-13T07:52:39.186Z,85.11
2022-09-13T07:53:34.665Z,92.37
2022-09-13T07:54:30.157Z,96.51
2022-09-13T07:55:25.921Z,98.86
2022-09-13T07:56:21.406Z,101.75
2022-09-13T07:57:17.322Z,107.73
2022-09-13T07:58:12.734Z,111.77
2022-09-13T07:59:08.124Z,116.37
2022-09-13T08:00:03.950Z,116.21
2022-09-13T08:00:59.594Z,114.30
2022-09-13T08:01:55.077Z,112.53
2022-09-13T08:02:51.458Z,111.25
2022-09-13T08:03:46.971Z,111.40
2022-09-13T08:04:42.804Z,110.66
2022-09-13T08:05:38.346Z,109.57
2022-09-13T08:06:33.865Z,110.37
2022-09-13T08:07:29.555Z,110.29
2022-09-13T08:08:25.072Z,109.79
2022-09-13T08:09:20.899Z,110.08
2022-09-13T08:10:16.285Z,110.81
2022-09-13T08:11:11.675Z,111.47
2022-09-13T08:12:07.373Z,115.09
2022-09-13T08:13:02.884Z,116.05
2022-09-13T08:13:58.416Z,117.27
2022-09-13T08:14:54.696Z,116.70
2022-09-13T08:15:50.222Z,116.05
2022-09-13T08:16:45.973Z,118.52
2022-09-13T08:17:41.508Z,120.14
2022-09-13T08:18:36.943Z,122.97
2022-09-13T08:19:32.629Z,124.07
2022-09-13T08:20:28.151Z,127.09
2022-09-13T08:21:23.959Z,127.97
2022-09-13T08:22:19.240Z,126.52
2022-09-13T08:23:14.646Z,128.07
2022-09-13T08:24:10.328Z,130.37
2022-09-13T08:25:05.720Z,131.50
2022-09-13T08:26:01.247Z,128.86
2022-09-13T08:26:57.498Z,124.63
2022-09-13T08:27:53.171Z,126.42
2022-09-13T08:28:48.415Z,129.96
2022-09-13T08:29:43.981Z,128.56
2022-09-13T08:30:39.713Z,123.25
2022-09-13T08:31:35.056Z,125.66
2022-09-13T08:32:30.856Z,126.42
2022-09-13T08:33:26.514Z,125.85
2022-09-13T08:34:21.901Z,128.17
2022-09-13T08:35:17.826Z,130.37
2022-09-13T08:36:13.387Z,130.27
2022-09-13T08:37:08.785Z,128.37
2022-09-13T08:38:05.131Z,131.29
2022-09-13T08:39:00.638Z,131.81
2022-09-13T08:39:56.460Z,133.71
2022-09-13T08:40:51.846Z,135.56
2022-09-13T08:41:47.517Z,137.91
2022-09-13T08:42:43.169Z,137.91
2022-09-13T08:43:38.775Z,137.35
2022-09-13T08:44:34.463Z,138.37
2022-09-13T08:45:29.881Z,138.49
2022-09-13T08:46:25.425Z,133.82
2022-09-13T08:47:20.869Z,137.35
2022-09-13T08:48:16.371Z,140.94
2022-09-13T08:49:15.972Z,143.12
2022-09-13T08:50:06.786Z,143.36
2022-09-13T08:51:01.911Z,144.61
2022-09-13T08:52:02.204Z,144.86
2022-09-13T08:52:57.611Z,152.54
2022-09-13T08:53:53.014Z,156.40
2022-09-13T08:54:48.530Z,155.38
2022-09-13T08:55:44.394Z,153.24
2022-09-13T08:56:39.781Z,153.10
2022-09-13T08:57:35.281Z,150.74
2022-09-13T08:58:30.974Z,151.15
2022-09-13T08:59:26.367Z,160.30
2022-09-13T09:00:22.200Z,168.39
2022-09-13T09:01:17.942Z,172.04
2022-09-13T09:02:13.330Z,169.42
2022-09-13T09:03:08.710Z,169.42
2022-09-13T09:04:05.185Z,166.71
2022-09-13T09:05:00.552Z,168.73
2022-09-13T09:05:56.239Z,170.80
2022-09-13T09:06:54.003Z,172.39
2022-09-13T09:07:47.169Z,174.37
2022-09-13T09:08:42.520Z,179.43
2022-09-13T09:09:38.327Z,184.80
2022-09-13T09:10:33.863Z,184.79
2022-09-13T09:11:29.699Z,186.47
2022-09-13T09:12:25.095Z,190.47
2022-09-13T09:13:24.270Z,189.04
2022-09-13T09:14:16.518Z,190.80
2022-09-13T09:15:12.046Z,195.93
2022-09-13T09:16:07.446Z,196.28
2022-09-13T09:17:03.362Z,195.23
2022-09-13T09:17:58.753Z,194.65
2022-09-13T09:18:54.263Z,191.25
2022-09-13T09:19:50.392Z,190.91
2022-09-13T09:20:45.898Z,191.25
2022-09-13T09:21:41.709Z,192.82
2022-09-13T09:22:37.252Z,190.36
2022-09-13T09:23:32.625Z,198.18
2022-09-13T09:24:28.448Z,196.87
2022-09-13T09:25:23.997Z,203.34
2022-09-13T09:26:19.806Z,206.67
2022-09-13T09:27:15.216Z,208.51
2022-09-13T09:28:10.606Z,208.90
2022-09-13T09:29:06.534Z,214.08
2022-09-13T09:30:01.926Z,218.36
2022-09-13T09:30:57.404Z,222.65
2022-09-13T09:31:53.750Z,210.38
2022-09-13T09:32:49.281Z,224.64
2022-09-13T09:33:45.076Z,227.28
2022-09-13T09:34:40.576Z,223.72
2022-09-13T09:35:36.110Z,223.87
2022-09-13T09:36:31.794Z,235.27
2022-09-13T09:37:27.319Z,241.68
2022-09-13T09:38:22.975Z,243.29
2022-09-13T09:39:18.493Z,240.26
2022-09-13T09:40:14.156Z,241.32
2022-09-13T09:41:09.913Z,233.26
2022-09-13T09:42:05.422Z,232.76
2022-09-13T09:43:00.943Z,239.74
2022-09-13T09:43:57.031Z,247.70
2022-09-13T09:44:52.662Z,252.08
2022-09-13T09:45:48.386Z,256.21
2022-09-13T09:46:43.956Z,253.83
2022-09-13T09:47:39.457Z,236.28
2022-09-13T09:48:35.165Z,240.79
2022-09-13T09:49:30.662Z,241.68
2022-09-13T09:50:26.453Z,240.62
2022-09-13T09:51:21.863Z,258.63
2022-09-13T09:52:17.271Z,275.35
2022-09-13T09:53:13.172Z,284.42
2022-09-13T09:54:08.583Z,281.73
2022-09-13T09:55:03.976Z,286.15
2022-09-13T09:56:00.383Z,288.67
2022-09-13T09:56:56.061Z,292.27
2022-09-13T09:57:51.722Z,287.66
2022-09-13T09:58:47.249Z,298.11
2022-09-13T09:59:42.641Z,319.29
2022-09-13T10:00:38.013Z,334.93
2022-09-13T10:01:33.750Z,327.90
2022-09-13T10:02:29.338Z,328.56
2022-09-13T10:03:24.737Z,322.11
2022-09-13T10:04:20.408Z,325.30
2022-09-13T10:05:15.941Z,332.89
2022-09-13T10:06:11.489Z,361.50
2022-09-13T10:07:07.682Z,369.64
2022-09-13T10:08:03.211Z,383.24
2022-09-13T10:08:59.000Z,400.98
2022-09-13T10:09:54.507Z,426.09
2022-09-13T10:10:49.937Z,424.73
2022-09-13T10:11:45.850Z,420.98
2022-09-13T10:12:41.239Z,410.86
2022-09-13T10:13:37.050Z,361.50
2022-09-13T10:14:32.591Z,352.19
2022-09-13T10:15:28.108Z,351.06
2022-09-13T10:16:23.958Z,359.13
2022-09-13T10:17:19.206Z,376.00
2022-09-13T10:18:39.919Z,383.46
2022-09-13T10:19:12.218Z,359.13
2022-09-13T10:20:06.798Z,353.33
2022-09-13T10:21:02.599Z,368.40
2022-09-13T10:21:57.969Z,368.40
2022-09-13T10:22:53.479Z,370.90
2022-09-13T10:23:49.137Z,368.81
2022-09-13T10:24:45.106Z,372.58
2022-09-13T10:25:42.835Z,393.18
2022-09-13T10:26:37.476Z,405.62
2022-09-13T10:27:34.618Z,422.58
2022-09-13T10:28:30.137Z,429.66
2022-09-13T10:29:25.765Z,430.77
2022-09-13T10:30:21.016Z,436.70
2022-09-13T10:31:17.543Z,431.89
2022-09-13T10:32:11.235Z,400.50
2022-09-13T10:33:06.212Z,401.46
2022-09-13T10:34:01.327Z,408.85
2022-09-13T10:34:56.406Z,445.74
2022-09-13T10:35:51.524Z,453.63
2022-09-13T10:36:52.557Z,453.32
2022-09-13T10:37:42.665Z,451.17
2022-09-13T10:38:36.671Z,454.56
2022-09-13T10:39:31.822Z,438.99
2022-09-13T10:40:26.893Z,429.11
2022-09-13T10:41:21.875Z,402.68
2022-09-13T10:42:16.926Z,365.93
2022-09-13T10:43:11.906Z,351.06
2022-09-13T10:44:09.753Z,330.55
2022-09-13T10:45:02.057Z,323.38
2022-09-13T10:45:57.097Z,306.75
2022-09-13T10:46:52.115Z,309.94
2022-09-13T10:47:47.089Z,276.51
2022-09-13T10:48:42.211Z,275.58
2022-09-13T10:49:37.605Z,262.57
2022-09-13T10:50:33.115Z,287.40
2022-09-13T10:51:28.553Z,311.41
2022-09-13T10:52:23.825Z,323.38
2022-09-13T10:53:19.213Z,331.55
2022-09-13T10:54:14.656Z,328.23
2022-09-13T10:55:10.203Z,305.61
2022-09-13T10:56:05.591Z,329.88
2022-09-13T10:57:01.122Z,362.70
2022-09-13T10:57:56.643Z,423.65
2022-09-13T10:58:52.032Z,465.67
2022-09-13T10:59:51.629Z,547.03
2022-09-13T11:00:47.100Z,584.94
2022-09-13T11:01:42.561Z,604.56
2022-09-13T11:02:38.094Z,606.76
2022-09-13T11:03:33.501Z,593.27
2022-09-13T11:04:28.677Z,616.30
2022-09-13T11:05:23.652Z,619.73
2022-09-13T11:06:18.762Z,630.28
2022-09-13T11:07:13.885Z,606.21
2022-09-13T11:08:08.902Z,539.07
2022-09-13T11:09:04.015Z,538.64
2022-09-13T11:09:59.280Z,536.90
2022-09-13T11:10:54.155Z,526.72
2022-09-13T11:11:49.272Z,617.44
2022-09-13T11:12:44.274Z,661.54
2022-09-13T11:13:41.838Z,674.25
2022-09-13T11:14:35.475Z,658.28
2022-09-13T11:15:29.560Z,701.19
2022-09-13T11:16:24.676Z,754.66
2022-09-13T11:17:19.758Z,790.41
2022-09-13T11:18:14.750Z,854.13
2022-09-13T11:19:10.012Z,857.42
2022-09-13T11:20:05.459Z,884.69
2022-09-13T11:21:01.116Z,898.99
2022-09-13T11:21:56.630Z,808.11
2022-09-13T11:22:52.439Z,785.29
2022-09-13T11:23:48.003Z,807.13
2022-09-13T11:24:43.520Z,811.06
2022-09-13T11:25:39.094Z,789.47
2022-09-13T11:26:38.294Z,724.03
2022-09-13T11:27:30.063Z,710.15
2022-09-13T11:28:25.604Z,696.79
2022-09-13T11:29:21.099Z,776.61
2022-09-13T11:30:16.685Z,953.57
2022-09-13T11:31:11.883Z,1064.59
2022-09-13T11:32:06.950Z,1118.09
2022-09-13T11:33:01.970Z,1072.29
2022-09-13T11:33:57.027Z,1048.70
2022-09-13T11:34:52.090Z,1053.67
2022-09-13T11:35:47.268Z,1114.36
2022-09-13T11:36:42.348Z,1187.72